Time;durP1;ratioP1;P1;durP2;ratioP2;P2;SDS_P1;SDS_P2;PMS_P1;PMS_P2;Temp;Humidity;BMP_temperature;BMP_pressure;BME280_temperature;BME280_humidity;BME280_pressure;Samples;Min_cycle;Max_cycle;Signal;HPM_P1;HPM_P2
2023/03/24 00:01:01;;;;;;;6.18;3.13;;;12.70;91.60;;;;;;5054643;28;20791;-75
2023/03/24 00:03:29;;;;;;;7.30;3.30;;;12.70;90.60;;;;;;5054139;28;20929;-75
2023/03/24 00:06:02;;;;;;;3.70;2.95;;;12.60;92.30;;;;;;5056094;28;20385;-75
2023/03/24 00:08:29;;;;;;;6.30;2.95;;;12.60;92.90;;;;;;5058743;28;20397;-75
2023/03/24 00:11:00;;;;;;;7.40;2.88;;;12.70;92.80;;;;;;5062118;28;20401;-75
2023/03/24 00:13:26;;;;;;;6.33;3.90;;;12.70;92.50;;;;;;5068261;28;20439;-75
2023/03/24 00:15:52;;;;;;;3.70;2.63;;;12.70;93.30;;;;;;5071306;28;20385;-75
2023/03/24 00:18:21;;;;;;;8.80;3.03;;;12.70;91.80;;;;;;5068302;28;20400;-74
2023/03/24 00:20:47;;;;;;;6.15;3.17;;;12.70;91.20;;;;;;5068742;28;20480;-74
2023/03/24 00:23:12;;;;;;;8.05;3.67;;;12.70;92.60;;;;;;5082733;23;20463;-73
2023/03/24 00:25:38;;;;;;;6.07;3.30;;;12.70;91.30;;;;;;5074440;28;20372;-72
2023/03/24 00:28:06;;;;;;;5.32;3.83;;;12.60;93.30;;;;;;5074209;28;20380;-72
2023/03/24 00:30:32;;;;;;;7.57;3.08;;;12.70;92.50;;;;;;5073957;28;20404;-72
2023/03/24 00:33:00;;;;;;;6.55;3.10;;;12.70;93.20;;;;;;5073932;28;20472;-73
2023/03/24 00:35:26;;;;;;;4.10;2.85;;;12.80;91.20;;;;;;5074033;28;20740;-73
2023/03/24 00:37:52;;;;;;;6.80;2.70;;;12.80;89.70;;;;;;5072674;28;20426;-73
2023/03/24 00:40:20;;;;;;;9.10;3.78;;;12.70;92.40;;;;;;5074731;28;20482;-72
2023/03/24 00:42:47;;;;;;;5.22;3.22;;;12.70;93.90;;;;;;5073318;28;20891;-72
2023/03/24 00:45:18;;;;;;;4.93;2.80;;;12.70;94.20;;;;;;5073837;28;20783;-72
2023/03/24 00:47:44;;;;;;;5.15;2.90;;;12.60;94.50;;;;;;5073918;28;20470;-73
2023/03/24 00:50:16;;;;;;;3.92;3.42;;;12.80;92.00;;;;;;5075846;28;20840;-74
2023/03/24 00:52:43;;;;;;;5.55;3.13;;;12.80;92.20;;;;;;5074390;28;20887;-73
2023/03/24 00:55:14;;;;;;;4.93;3.30;;;12.80;92.10;;;;;;5073639;28;20799;-73
2023/03/24 00:57:40;;;;;;;4.75;2.90;;;12.90;90.00;;;;;;5075184;28;20759;-72
2023/03/24 01:00:18;;;;;;;3.65;2.50;;;13.00;88.40;;;;;;5073680;28;20384;-72
2023/03/24 01:02:45;;;;;;;5.80;3.43;;;13.00;88.80;;;;;;5073291;28;20798;-72
2023/03/24 01:05:13;;;;;;;5.30;3.40;;;13.00;90.00;;;;;;5073410;28;20863;-73
2023/03/24 01:07:41;;;;;;;6.15;3.00;;;12.80;91.80;;;;;;5073147;28;20729;-72
2023/03/24 01:10:11;;;;;;;6.47;3.70;;;12.80;96.10;;;;;;5073126;28;20407;-72
2023/03/24 01:12:37;;;;;;;5.50;3.28;;;12.80;95.30;;;;;;5072814;28;20430;-72
2023/03/24 01:15:07;;;;;;;6.93;3.10;;;13.00;93.40;;;;;;5073260;28;20383;-72
2023/03/24 01:17:33;;;;;;;6.22;2.60;;;13.10;92.30;;;;;;5073552;28;20380;-73
2023/03/24 01:19:59;;;;;;;6.43;3.30;;;12.90;94.90;;;;;;5073213;28;20376;-73
2023/03/24 01:22:29;;;;;;;4.30;3.60;;;12.90;95.80;;;;;;5072987;28;20396;-73
2023/03/24 01:24:55;;;;;;;6.20;4.18;;;12.70;99.90;;;;;;5073530;28;20910;-74
2023/03/24 01:27:20;;;;;;;4.60;2.80;;;12.60;99.90;;;;;;5073144;28;20407;-75
2023/03/24 01:29:46;;;;;;;3.85;2.80;;;12.80;99.90;;;;;;5073703;28;20380;-74
2023/03/24 01:32:20;;;;;;;4.40;3.60;;;12.70;99.90;;;;;;5073859;28;20415;-75
2023/03/24 01:34:46;;;;;;;4.90;3.97;;;12.80;99.90;;;;;;5073534;28;20793;-73
2023/03/24 01:37:11;;;;;;;6.83;5.10;;;12.70;99.90;;;;;;5073850;28;20415;-73
2023/03/24 01:39:37;;;;;;;5.70;3.90;;;12.80;99.90;;;;;;5073969;28;20425;-72
2023/03/24 01:42:02;;;;;;;6.43;4.25;;;12.70;99.90;;;;;;5073313;28;20402;-74
2023/03/24 01:44:32;;;;;;;4.90;4.18;;;12.80;99.90;;;;;;5073233;28;20388;-72
2023/03/24 01:46:59;;;;;;;5.97;4.05;;;12.90;98.00;;;;;;5073082;28;20388;-72
2023/03/24 01:49:31;;;;;;;8.45;4.45;;;12.90;96.10;;;;;;5073220;28;20448;-71
2023/03/24 01:52:00;;;;;;;6.30;4.38;;;12.80;98.00;;;;;;5073574;28;20403;-75
2023/03/24 01:54:37;;;;;;;6.53;5.05;;;12.90;97.30;;;;;;5073906;28;20384;-73
2023/03/24 01:57:10;;;;;;;5.57;4.20;;;12.90;96.40;;;;;;5073411;28;20513;-73
2023/03/24 01:59:40;;;;;;;6.78;4.35;;;12.90;97.30;;;;;;5073362;28;20372;-73
2023/03/24 02:02:07;;;;;;;7.63;4.20;;;12.90;97.00;;;;;;5072960;28;20383;-73
2023/03/24 02:04:38;;;;;;;7.55;5.15;;;13.00;96.50;;;;;;5073535;28;20384;-74
2023/03/24 02:07:42;;;;;;;9.70;5.15;;;13.00;95.80;;;;;;5074115;28;20664;-73
2023/03/24 02:10:14;;;;;;;4.47;3.83;;;12.90;99.80;;;;;;5074169;28;20434;-73
2023/03/24 02:12:42;;;;;;;6.72;4.72;;;12.90;99.90;;;;;;5073423;28;20375;-73
2023/03/24 02:15:08;;;;;;;9.00;5.40;;;12.90;99.90;;;;;;5073872;28;20446;-73
2023/03/24 02:17:50;;;;;;;5.70;4.20;;;12.90;99.90;;;;;;5072972;28;20915;-72
2023/03/24 02:20:43;;;;;;;5.32;4.53;;;12.90;99.90;;;;;;5072216;28;20382;-71
2023/03/24 02:23:30;;;;;;;5.30;3.90;;;12.90;99.90;;;;;;5070401;28;20554;-73
2023/03/24 02:26:46;;;;;;;6.15;4.55;;;12.90;99.90;;;;;;5072167;28;20391;-74
2023/03/24 02:29:42;;;;;;;5.90;3.83;;;13.00;99.50;;;;;;5049744;28;20838;-73
2023/03/24 02:32:27;;;;;;;7.78;5.80;;;13.00;99.90;;;;;;5049211;28;20414;-72
2023/03/24 02:35:31;;;;;;;6.30;4.60;;;12.90;99.90;;;;;;5062318;28;20433;-72
2023/03/24 02:38:18;;;;;;;9.90;5.50;;;12.90;99.90;;;;;;5070579;28;20388;-72
2023/03/24 02:41:19;;;;;;;8.48;5.57;;;12.80;99.90;;;;;;5072022;28;20387;-73
2023/03/24 02:44:26;;;;;;;8.30;5.70;;;12.70;99.90;;;;;;5072672;28;20795;-73
2023/03/24 02:47:00;;;;;;;8.63;5.30;;;12.80;99.90;;;;;;5068695;28;20490;-73
2023/03/24 02:49:35;;;;;;;7.82;5.47;;;12.80;99.90;;;;;;5071438;28;20395;-73
2023/03/24 02:52:15;;;;;;;7.53;5.28;;;13.00;99.90;;;;;;5071085;28;20392;-73
2023/03/24 02:54:45;;;;;;;4.30;3.90;;;13.00;98.20;;;;;;5071236;28;20466;-73
2023/03/24 02:57:29;;;;;;;6.40;4.32;;;13.10;94.40;;;;;;5071486;28;20390;-74
2023/03/24 03:00:06;;;;;;;7.00;4.90;;;13.20;91.20;;;;;;5071332;28;21010;-74
2023/03/24 03:02:34;;;;;;;6.03;4.30;;;13.20;89.40;;;;;;5070786;28;20747;-73
2023/03/24 03:05:06;;;;;;;10.63;5.55;;;13.30;89.40;;;;;;5070221;28;20894;-73
2023/03/24 03:07:36;;;;;;;4.40;4.00;;;13.30;90.20;;;;;;5071566;28;20379;-72
2023/03/24 03:10:12;;;;;;;5.03;4.53;;;13.20;89.20;;;;;;5071749;28;20419;-73
2023/03/24 03:12:39;;;;;;;4.83;3.80;;;13.40;88.80;;;;;;5071287;28;20474;-73
2023/03/24 03:15:11;;;;;;;5.95;3.92;;;13.40;87.50;;;;;;5071433;28;20380;-72
2023/03/24 03:17:51;;;;;;;4.00;3.60;;;13.50;85.20;;;;;;5071407;28;20397;-74
2023/03/24 03:20:21;;;;;;;4.60;3.65;;;13.50;84.10;;;;;;5070884;28;20388;-73
2023/03/24 03:22:59;;;;;;;3.77;3.33;;;13.70;78.80;;;;;;5070612;28;20767;-72
2023/03/24 03:25:32;;;;;;;3.25;2.95;;;13.80;76.50;;;;;;5071028;28;20832;-75
2023/03/24 03:28:01;;;;;;;4.37;3.40;;;14.00;73.90;;;;;;5070986;28;20785;-73
2023/03/24 03:30:42;;;;;;;3.55;2.70;;;14.10;71.40;;;;;;5070741;28;20760;-73
2023/03/24 03:33:23;;;;;;;2.93;2.70;;;14.20;69.80;;;;;;5070456;28;20387;-73
2023/03/24 03:35:55;;;;;;;4.93;2.80;;;14.30;66.40;;;;;;5071008;28;20891;-73
2023/03/24 03:38:33;;;;;;;2.95;2.75;;;14.40;66.00;;;;;;5071331;28;20429;-75
2023/03/24 03:41:01;;;;;;;2.53;2.33;;;14.50;64.80;;;;;;5071056;28;20382;-74
2023/03/24 03:43:29;;;;;;;6.22;3.00;;;14.50;64.20;;;;;;5071144;28;20955;-74
2023/03/24 03:45:54;;;;;;;3.90;2.67;;;14.60;64.00;;;;;;5071430;28;20383;-72
2023/03/24 03:48:20;;;;;;;4.77;2.70;;;14.50;64.30;;;;;;5071377;28;20447;-72
2023/03/24 03:50:46;;;;;;;3.45;2.50;;;14.60;64.10;;;;;;5070965;28;20481;-72
2023/03/24 03:53:18;;;;;;;3.95;2.65;;;14.50;65.00;;;;;;5070691;28;20380;-72
2023/03/24 03:55:44;;;;;;;2.55;2.35;;;14.60;63.50;;;;;;5071278;28;20416;-72
2023/03/24 03:58:10;;;;;;;2.58;2.38;;;14.60;62.50;;;;;;5071287;28;20461;-72
2023/03/24 04:00:36;;;;;;;3.65;2.20;;;14.70;62.50;;;;;;5071174;28;20864;-72
2023/03/24 04:03:21;;;;;;;5.25;2.70;;;14.60;63.00;;;;;;5070779;28;20380;-72
2023/03/24 04:06:03;;;;;;;3.10;2.67;;;14.70;62.60;;;;;;5072136;28;20396;-74
2023/03/24 04:09:06;;;;;;;4.10;2.60;;;14.60;64.00;;;;;;5071832;28;20391;-73
2023/03/24 04:11:45;;;;;;;6.85;2.97;;;14.60;64.50;;;;;;5070427;28;20891;-73
2023/03/24 04:14:24;;;;;;;3.97;2.78;;;14.50;67.10;;;;;;5070387;28;20500;-72
2023/03/24 04:17:35;;;;;;;4.22;2.90;;;14.50;66.30;;;;;;5069998;28;20883;-73
2023/03/24 04:20:13;;;;;;;5.50;3.00;;;14.50;67.40;;;;;;5070447;28;20876;-74
2023/03/24 04:22:49;;;;;;;3.33;3.03;;;14.50;68.10;;;;;;5070219;28;20387;-74
2023/03/24 04:25:28;;;;;;;5.05;3.00;;;14.40;71.10;;;;;;5070547;28;20412;-72
2023/03/24 04:28:02;;;;;;;5.18;3.58;;;14.40;72.40;;;;;;5070446;28;20831;-74
2023/03/24 04:30:51;;;;;;;3.58;3.28;;;14.30;78.00;;;;;;5070134;28;20406;-74
2023/03/24 04:33:27;;;;;;;3.90;3.42;;;13.90;85.10;;;;;;5070404;28;20404;-72
2023/03/24 04:36:15;;;;;;;5.97;3.72;;;13.90;86.10;;;;;;5070840;28;20591;-73
2023/03/24 04:38:44;;;;;;;4.20;3.53;;;13.80;88.00;;;;;;5070838;28;20786;-73
2023/03/24 04:41:11;;;;;;;6.78;3.72;;;13.60;91.30;;;;;;5071070;28;20443;-73
2023/03/24 04:43:37;;;;;;;6.03;3.63;;;13.60;92.90;;;;;;5071377;28;20387;-74
2023/03/24 04:46:04;;;;;;;5.87;3.87;;;13.50;93.80;;;;;;5072759;28;20461;-72
2023/03/24 04:48:30;;;;;;;4.88;3.78;;;13.40;93.30;;;;;;5074336;28;20813;-74
2023/03/24 04:50:59;;;;;;;4.47;3.65;;;13.40;92.20;;;;;;5073950;28;20437;-73
2023/03/24 04:53:24;;;;;;;4.25;3.25;;;13.40;91.60;;;;;;5074869;28;20467;-72
2023/03/24 04:55:59;;;;;;;4.13;3.15;;;13.50;87.90;;;;;;5077618;28;20399;-73
2023/03/24 04:58:25;;;;;;;5.93;3.00;;;13.40;87.00;;;;;;5079459;28;20405;-72
2023/03/24 05:00:51;;;;;;;5.85;2.92;;;13.40;84.50;;;;;;5077577;28;20799;-72
2023/03/24 05:03:17;;;;;;;3.60;3.00;;;13.30;83.90;;;;;;5076987;28;20482;-73
2023/03/24 05:05:45;;;;;;;3.72;2.80;;;13.30;81.40;;;;;;5073537;28;20416;-73
2023/03/24 05:08:11;;;;;;;5.80;2.50;;;13.40;81.90;;;;;;5073259;28;20379;-72
2023/03/24 05:10:38;;;;;;;2.97;2.35;;;13.40;76.80;;;;;;5073438;28;20422;-73
2023/03/24 05:13:05;;;;;;;7.15;2.95;;;13.40;75.90;;;;;;5074224;28;20376;-74
2023/03/24 05:15:30;;;;;;;3.10;1.73;;;13.30;75.20;;;;;;5074469;28;20743;-73
2023/03/24 05:17:56;;;;;;;3.00;2.30;;;13.30;72.50;;;;;;5073797;28;20379;-72
2023/03/24 05:20:22;;;;;;;5.60;2.00;;;13.20;71.70;;;;;;5073451;28;20467;-71
2023/03/24 05:22:48;;;;;;;2.75;2.10;;;13.10;70.50;;;;;;5073422;28;20400;-73
2023/03/24 05:25:15;;;;;;;7.83;2.10;;;13.10;71.70;;;;;;5073819;28;20444;-74
2023/03/24 05:27:41;;;;;;;2.47;2.00;;;13.00;68.70;;;;;;5072916;28;20376;-73
2023/03/24 05:30:07;;;;;;;4.22;2.05;;;12.90;69.30;;;;;;5072657;28;20383;-73
2023/03/24 05:32:33;;;;;;;9.43;1.90;;;12.80;66.10;;;;;;5070801;28;20880;-73
2023/03/24 05:34:59;;;;;;;2.95;1.70;;;12.60;68.50;;;;;;5072816;28;20383;-73
2023/03/24 05:37:24;;;;;;;4.60;1.80;;;12.60;68.20;;;;;;5073003;28;20413;-73
2023/03/24 05:39:50;;;;;;;5.80;1.50;;;12.50;63.90;;;;;;5073088;28;20383;-73
2023/03/24 05:42:16;;;;;;;6.60;1.60;;;12.40;60.20;;;;;;5072296;28;20390;-73
2023/03/24 05:44:42;;;;;;;2.75;1.50;;;12.40;58.80;;;;;;5073205;28;20864;-74
2023/03/24 05:47:08;;;;;;;7.60;1.70;;;12.30;58.60;;;;;;5072407;28;20541;-73
2023/03/24 05:49:34;;;;;;;4.03;1.50;;;12.20;57.50;;;;;;5072452;28;20392;-74
2023/03/24 05:51:59;;;;;;;6.60;2.33;;;12.10;57.20;;;;;;5072481;28;20400;-74
2023/03/24 05:54:25;;;;;;;5.80;1.60;;;12.00;58.80;;;;;;5073813;28;20383;-72
2023/03/24 05:56:51;;;;;;;4.28;1.55;;;12.00;57.50;;;;;;5073362;28;20375;-73
2023/03/24 05:59:16;;;;;;;5.73;1.70;;;11.90;58.50;;;;;;5075098;28;20383;-74
2023/03/24 06:01:42;;;;;;;4.25;1.73;;;11.80;59.50;;;;;;5077998;28;20383;-73
2023/03/24 06:04:08;;;;;;;7.40;1.80;;;11.70;59.70;;;;;;5077102;28;20491;-74
2023/03/24 06:06:34;;;;;;;6.22;1.73;;;11.70;59.70;;;;;;5076780;28;20376;-72
2023/03/24 06:09:03;;;;;;;5.53;1.93;;;11.70;59.30;;;;;;5074748;28;20387;-73
2023/03/24 06:11:29;;;;;;;6.75;1.77;;;11.70;57.90;;;;;;5071940;28;20453;-73
2023/03/24 06:13:59;;;;;;;6.90;2.10;;;11.60;57.50;;;;;;5072449;28;20380;-73
2023/03/24 06:16:28;;;;;;;6.43;2.30;;;11.50;54.00;;;;;;5072553;28;20509;-72
2023/03/24 06:18:54;;;;;;;8.73;1.80;;;11.50;53.10;;;;;;5072135;28;20402;-71
2023/03/24 06:21:20;;;;;;;13.55;2.80;;;11.40;53.60;;;;;;5072077;28;20392;-74
2023/03/24 06:23:46;;;;;;;4.45;1.95;;;11.30;54.50;;;;;;5084294;22;20439;-74
2023/03/24 06:26:13;;;;;;;7.90;1.97;;;11.30;53.80;;;;;;5071037;28;20496;-74
2023/03/24 06:28:40;;;;;;;11.30;2.25;;;11.30;54.50;;;;;;5072272;28;20840;-75
2023/03/24 06:31:13;;;;;;;12.05;2.50;;;11.30;55.50;;;;;;5072033;28;20403;-74
2023/03/24 06:33:39;;;;;;;9.82;2.28;;;11.20;55.70;;;;;;5072103;28;20395;-74
2023/03/24 06:36:06;;;;;;;10.60;2.70;;;11.30;53.70;;;;;;5072159;28;20383;-74
2023/03/24 06:38:32;;;;;;;7.93;2.10;;;11.30;52.80;;;;;;5072215;28;20387;-74
2023/03/24 06:41:01;;;;;;;10.48;1.90;;;11.30;53.10;;;;;;5070878;28;20400;-75
2023/03/24 06:43:27;;;;;;;8.98;2.00;;;11.30;54.10;;;;;;5069671;28;20404;-74
2023/03/24 06:45:52;;;;;;;12.82;2.50;;;11.20;53.30;;;;;;5067049;28;20409;-74
2023/03/24 06:48:18;;;;;;;11.85;2.50;;;11.30;53.30;;;;;;5069121;28;20892;-74
2023/03/24 06:50:44;;;;;;;12.45;3.30;;;11.30;52.50;;;;;;5071415;28;20814;-74
2023/03/24 06:53:09;;;;;;;7.38;1.80;;;11.30;51.90;;;;;;5070748;28;20384;-74
2023/03/24 06:55:35;;;;;;;9.95;3.00;;;11.30;52.10;;;;;;5058326;28;20520;-73
2023/03/24 06:58:01;;;;;;;9.07;2.20;;;11.20;54.30;;;;;;5065094;28;20487;-73
2023/03/24 07:00:28;;;;;;;13.60;2.80;;;11.20;52.40;;;;;;5067952;28;20444;-73
2023/03/24 07:02:54;;;;;;;10.82;2.65;;;11.20;53.00;;;;;;5069751;28;20399;-73
2023/03/24 07:05:21;;;;;;;16.45;3.15;;;11.20;52.80;;;;;;5069950;28;20383;-73
2023/03/24 07:07:47;;;;;;;11.32;2.58;;;11.20;53.00;;;;;;5071071;28;20501;-73
2023/03/24 07:10:13;;;;;;;15.02;2.65;;;11.10;54.90;;;;;;5071678;28;20486;-74
2023/03/24 07:12:39;;;;;;;9.67;2.40;;;11.20;53.70;;;;;;5074903;28;20379;-74
2023/03/24 07:15:07;;;;;;;9.18;2.78;;;11.20;55.70;;;;;;5069693;28;20396;-74
2023/03/24 07:17:33;;;;;;;10.30;2.35;;;11.20;54.40;;;;;;5063141;28;20897;-75
2023/03/24 07:19:58;;;;;;;12.43;2.42;;;11.30;56.50;;;;;;5084794;28;20422;-73
2023/03/24 07:22:24;;;;;;;10.77;2.40;;;11.30;57.30;;;;;;5072460;28;20399;-74
2023/03/24 07:24:50;;;;;;;9.97;1.90;;;11.50;56.30;;;;;;5068580;28;20753;-74
2023/03/24 07:27:16;;;;;;;11.83;2.93;;;11.70;56.60;;;;;;5067011;28;20408;-74
2023/03/24 07:29:42;;;;;;;10.85;2.95;;;11.80;56.00;;;;;;5069322;28;20521;-73
2023/03/24 07:32:08;;;;;;;10.53;2.57;;;11.90;56.80;;;;;;5069351;28;20447;-74
2023/03/24 07:34:35;;;;;;;13.20;2.55;;;12.00;55.80;;;;;;5066775;28;20394;-74
2023/03/24 07:37:01;;;;;;;10.27;2.85;;;11.90;58.00;;;;;;5068930;28;20379;-74
2023/03/24 07:39:26;;;;;;;10.60;2.22;;;11.90;58.10;;;;;;5068240;28;20400;-74
2023/03/24 07:41:52;;;;;;;12.18;3.05;;;11.90;57.00;;;;;;5068336;28;20387;-74
2023/03/24 07:44:18;;;;;;;10.73;2.50;;;12.00;56.00;;;;;;5069115;28;20408;-74
2023/03/24 07:46:44;;;;;;;14.38;2.80;;;12.00;57.10;;;;;;5069242;28;20376;-75
2023/03/24 07:49:10;;;;;;;11.70;3.20;;;12.00;58.00;;;;;;5069527;28;20423;-75
2023/03/24 07:51:36;;;;;;;10.25;2.50;;;12.10;53.70;;;;;;5068572;28;20430;-74
2023/03/24 07:54:02;;;;;;;14.10;3.42;;;12.20;53.60;;;;;;5068493;28;20380;-73
2023/03/24 07:56:27;;;;;;;15.23;2.83;;;12.30;53.80;;;;;;5068527;28;20380;-74
2023/03/24 07:58:53;;;;;;;13.43;3.13;;;12.30;52.20;;;;;;5068409;28;20404;-74
2023/03/24 08:01:18;;;;;;;14.27;3.10;;;12.30;51.10;;;;;;5068986;28;20376;-73
2023/03/24 08:03:47;;;;;;;13.80;3.40;;;12.50;49.90;;;;;;5067646;28;20752;-73
2023/03/24 08:06:13;;;;;;;13.02;3.65;;;12.40;50.60;;;;;;5049070;28;20738;-74
2023/03/24 08:08:39;;;;;;;10.90;3.78;;;12.60;48.60;;;;;;5058694;28;20376;-73
2023/03/24 08:11:05;;;;;;;16.35;3.35;;;12.80;46.40;;;;;;5068861;28;20411;-75
2023/03/24 08:13:30;;;;;;;13.45;3.90;;;13.10;43.10;;;;;;5070415;28;20375;-75
2023/03/24 08:15:56;;;;;;;14.30;4.32;;;13.60;40.50;;;;;;5070619;28;20449;-74
2023/03/24 08:18:23;;;;;;;13.30;3.80;;;13.90;38.50;;;;;;5057098;28;20389;-74
2023/03/24 08:20:53;;;;;;;18.95;4.60;;;14.10;35.80;;;;;;5069071;28;20937;-74
2023/03/24 08:23:18;;;;;;;14.50;3.95;;;13.90;35.20;;;;;;5074174;28;20482;-73
2023/03/24 08:25:46;;;;;;;14.45;4.25;;;14.00;36.90;;;;;;5073816;28;20492;-73
2023/03/24 08:28:11;;;;;;;15.60;3.75;;;14.10;35.90;;;;;;5073447;28;20395;-77
2023/03/24 08:30:37;;;;;;;16.20;4.40;;;14.00;37.40;;;;;;5074896;28;20411;-75
2023/03/24 08:33:03;;;;;;;19.13;4.57;;;13.80;38.90;;;;;;5074664;28;20402;-76
2023/03/24 08:35:32;;;;;;;16.00;4.82;;;13.60;38.10;;;;;;5074139;28;20395;-76
2023/03/24 08:37:58;;;;;;;12.55;3.80;;;13.30;40.10;;;;;;5075287;28;20418;-77
2023/03/24 08:40:26;;;;;;;12.13;4.07;;;13.20;40.60;;;;;;5086275;28;20384;-76
2023/03/24 08:42:58;;;;;;;10.95;3.92;;;13.10;42.50;;;;;;5090903;28;20430;-75
2023/03/24 08:45:27;;;;;;;16.75;4.57;;;13.10;41.80;;;;;;5073373;28;20409;-74
2023/03/24 08:47:54;;;;;;;21.95;4.40;;;13.00;42.20;;;;;;5074178;28;20388;-74
2023/03/24 08:50:22;;;;;;;15.32;4.60;;;12.90;44.40;;;;;;5084009;28;20530;-76
2023/03/24 08:52:48;;;;;;;17.83;3.80;;;13.00;43.60;;;;;;5077969;28;20460;-75
2023/03/24 08:55:18;;;;;;;16.75;4.13;;;13.10;43.70;;;;;;5068926;28;20394;-76
2023/03/24 09:00:21;;;;;;;17.37;4.20;;;13.10;40.20;;;;;;5087304;27;20369;-73
2023/03/24 09:02:54;;;;;;;11.43;3.42;;;13.10;42.30;;;;;;5087312;28;20391;-75
2023/03/24 09:05:22;;;;;;;15.25;3.47;;;13.30;39.00;;;;;;5089327;28;20698;-75
2023/03/24 09:07:48;;;;;;;17.15;3.88;;;13.40;40.30;;;;;;5087546;28;20815;-75
2023/03/24 09:10:14;;;;;;;13.85;3.90;;;13.70;38.50;;;;;;5089132;28;20404;-74
2023/03/24 09:12:41;;;;;;;15.05;3.92;;;14.00;36.20;;;;;;5088831;28;20867;-74
2023/03/24 09:15:08;;;;;;;19.23;3.60;;;14.30;35.10;;;;;;5088236;28;20399;-74
2023/03/24 09:17:35;;;;;;;15.87;3.53;;;14.40;34.20;;;;;;5089081;28;20391;-75
2023/03/24 09:20:03;;;;;;;19.67;4.10;;;14.20;35.30;;;;;;5087510;28;20759;-75
2023/03/24 09:22:29;;;;;;;15.50;3.60;;;14.20;34.00;;;;;;5086725;28;20748;-74
2023/03/24 09:24:54;;;;;;;14.97;3.43;;;14.10;34.30;;;;;;5067756;28;20376;-74
2023/03/24 09:27:20;;;;;;;21.73;4.00;;;14.10;34.30;;;;;;5068555;28;20385;-75
2023/03/24 09:29:46;;;;;;;12.50;3.80;;;14.20;33.90;;;;;;5066321;28;20389;-74
2023/03/24 09:32:12;;;;;;;18.88;3.92;;;14.40;32.40;;;;;;5078518;28;20390;-75
2023/03/24 09:34:38;;;;;;;12.83;3.73;;;14.40;31.90;;;;;;5079290;28;20391;-74
2023/03/24 09:37:04;;;;;;;19.20;4.30;;;14.30;33.10;;;;;;5087965;28;20382;-75
2023/03/24 09:39:30;;;;;;;14.93;4.10;;;14.40;32.80;;;;;;5087612;28;20406;-75
2023/03/24 09:41:56;;;;;;;16.50;3.87;;;14.50;34.30;;;;;;5088293;28;20430;-74
2023/03/24 09:44:35;;;;;;;17.48;4.00;;;14.60;32.10;;;;;;5086596;28;20418;-75
2023/03/24 09:47:18;;;;;;;14.65;3.30;;;14.60;31.20;;;;;;5087810;28;20421;-74
2023/03/24 09:49:44;;;;;;;16.97;3.90;;;14.50;31.70;;;;;;5087967;28;20503;-74
2023/03/24 09:52:13;;;;;;;7.63;3.08;;;14.50;30.70;;;;;;5088074;28;20385;-73
2023/03/24 09:54:47;;;;;;;16.80;4.13;;;14.70;30.90;;;;;;5080346;28;20929;-74
2023/03/24 09:57:24;;;;;;;17.52;4.28;;;15.10;28.40;;;;;;5066717;28;20400;-74
2023/03/24 09:59:50;;;;;;;16.30;4.20;;;15.30;27.60;;;;;;5097832;28;20405;-74
2023/03/24 10:02:18;;;;;;;17.38;4.22;;;15.30;26.50;;;;;;5090337;28;20384;-75
2023/03/24 10:04:45;;;;;;;18.70;4.00;;;15.20;27.80;;;;;;5105238;28;20421;-75
2023/03/24 10:07:46;;;;;;;21.15;3.90;;;15.20;26.90;;;;;;5090972;28;20438;-74
2023/03/24 10:10:26;;;;;;;13.20;4.27;;;15.20;26.30;;;;;;5084849;28;20429;-74
2023/03/24 10:12:57;;;;;;;17.95;4.25;;;15.10;27.80;;;;;;5071102;28;20388;-74
2023/03/24 10:15:40;;;;;;;15.50;3.90;;;15.30;27.10;;;;;;5078052;28;20444;-74
2023/03/24 10:18:11;;;;;;;14.57;4.47;;;15.50;26.20;;;;;;5060115;28;20381;-75
2023/03/24 10:20:51;;;;;;;15.40;4.65;;;15.40;26.00;;;;;;5061100;28;20422;-75
2023/03/24 10:23:35;;;;;;;18.77;4.10;;;15.20;26.60;;;;;;5085037;28;20380;-74
2023/03/24 10:26:22;;;;;;;13.25;3.88;;;15.10;28.10;;;;;;5074155;28;20710;-74
2023/03/24 10:29:09;;;;;;;13.60;3.57;;;15.30;25.80;;;;;;5084538;28;20406;-76
2023/03/24 10:31:37;;;;;;;12.45;4.03;;;15.60;26.70;;;;;;5073431;28;20868;-73
2023/03/24 10:34:04;;;;;;;12.97;3.97;;;16.00;24.40;;;;;;5071881;28;20739;-75
2023/03/24 10:36:31;;;;;;;16.98;3.20;;;16.00;22.90;;;;;;5074377;28;20449;-74
2023/03/24 10:38:56;;;;;;;12.13;3.60;;;15.70;21.60;;;;;;5074891;28;20396;-74
2023/03/24 10:41:24;;;;;;;12.43;3.13;;;15.60;22.30;;;;;;5073322;28;20387;-74
2023/03/24 10:43:52;;;;;;;16.15;3.60;;;15.60;22.00;;;;;;5074163;28;20380;-74
2023/03/24 10:46:22;;;;;;;10.65;3.00;;;15.50;22.20;;;;;;5070385;28;20388;-74
2023/03/24 10:48:53;;;;;;;15.27;3.55;;;15.60;22.90;;;;;;5088966;28;20386;-75
2023/03/24 10:51:30;;;;;;;11.03;3.07;;;15.80;22.50;;;;;;5093288;28;20482;-73
2023/03/24 10:54:19;;;;;;;9.20;3.00;;;16.00;21.00;;;;;;5088046;28;20885;-73
2023/03/24 10:56:56;;;;;;;12.45;3.17;;;16.10;20.40;;;;;;5093057;28;20388;-72
2023/03/24 10:59:59;;;;;;;7.68;3.03;;;16.10;20.60;;;;;;5093868;28;20493;-74
2023/03/24 11:02:32;;;;;;;13.35;2.80;;;16.30;20.40;;;;;;5094548;28;20878;-74
2023/03/24 11:05:17;;;;;;;13.73;3.20;;;16.20;18.60;;;;;;5080114;28;20449;-74
2023/03/24 11:07:48;;;;;;;10.57;2.75;;;16.00;19.70;;;;;;5073463;28;20391;-74
2023/03/24 11:10:26;;;;;;;9.48;2.60;;;16.30;20.10;;;;;;5074506;28;20427;-74
2023/03/24 11:12:56;;;;;;;11.20;3.25;;;16.30;19.60;;;;;;5086543;28;20411;-75
2023/03/24 11:15:23;;;;;;;12.10;2.90;;;16.30;19.80;;;;;;5073294;28;20384;-74
2023/03/24 11:17:53;;;;;;;9.77;2.60;;;16.50;18.80;;;;;;5072344;28;20387;-74
2023/03/24 11:20:20;;;;;;;7.65;2.60;;;16.10;19.50;;;;;;5072161;28;20412;-73
2023/03/24 11:23:14;;;;;;;10.55;3.20;;;15.80;20.20;;;;;;5071629;28;20399;-73
2023/03/24 11:25:43;;;;;;;11.80;3.20;;;15.50;20.70;;;;;;5064606;28;20387;-74
2023/03/24 11:28:16;;;;;;;9.27;2.80;;;15.40;21.20;;;;;;5090966;28;20467;-73
2023/03/24 11:30:54;;;;;;;12.80;2.60;;;15.30;21.20;;;;;;5060387;28;20393;-74
2023/03/24 11:33:32;;;;;;;13.38;2.70;;;15.40;21.00;;;;;;5050529;28;20399;-72
2023/03/24 11:36:03;;;;;;;13.10;2.90;;;15.50;21.40;;;;;;5052015;28;20423;-72
2023/03/24 11:38:33;;;;;;;10.30;3.17;;;15.70;20.60;;;;;;5052095;28;20401;-73
2023/03/24 11:41:03;;;;;;;9.95;3.08;;;15.70;20.60;;;;;;5053596;28;20434;-73
2023/03/24 11:43:30;;;;;;;7.32;2.60;;;15.80;20.30;;;;;;5052123;28;20385;-72
2023/03/24 11:46:19;;;;;;;11.43;2.75;;;15.80;19.30;;;;;;5051963;28;20856;-74
2023/03/24 11:48:57;;;;;;;11.98;3.13;;;15.90;20.30;;;;;;5047134;28;20435;-73
2023/03/24 11:51:31;;;;;;;7.53;2.72;;;16.00;19.90;;;;;;5034096;28;20394;-73
2023/03/24 11:54:01;;;;;;;9.80;2.80;;;16.10;19.90;;;;;;5051537;28;20393;-73
2023/03/24 11:56:36;;;;;;;10.60;2.75;;;16.40;19.30;;;;;;5051984;28;20486;-73
2023/03/24 11:59:31;;;;;;;13.05;2.95;;;16.60;18.90;;;;;;5053148;28;20420;-74
2023/03/24 12:02:33;;;;;;;11.83;3.07;;;16.50;18.90;;;;;;5056972;28;20381;-74
2023/03/24 12:05:18;;;;;;;12.73;2.95;;;16.40;19.00;;;;;;5054371;28;20618;-73
2023/03/24 12:07:53;;;;;;;9.40;2.97;;;16.50;18.60;;;;;;5055227;28;20837;-73
2023/03/24 12:10:43;;;;;;;7.75;2.30;;;16.50;18.70;;;;;;5053128;28;20734;-73
2023/03/24 12:13:15;;;;;;;8.75;2.85;;;16.80;18.60;;;;;;5052597;28;20447;-73
2023/03/24 12:15:59;;;;;;;8.13;2.60;;;17.00;18.20;;;;;;5055505;28;20391;-72
2023/03/24 12:18:51;;;;;;;12.75;2.67;;;16.90;18.70;;;;;;5055254;28;20787;-74
2023/03/24 12:21:48;;;;;;;8.05;2.53;;;17.10;18.10;;;;;;5059809;28;20400;-73
2023/03/24 12:24:33;;;;;;;8.50;2.75;;;17.40;17.50;;;;;;5060058;28;20457;-74
2023/03/24 12:27:00;;;;;;;11.75;2.90;;;17.50;16.50;;;;;;5052838;28;20378;-74
2023/03/24 12:29:41;;;;;;;8.68;2.85;;;17.50;16.70;;;;;;5052650;28;20735;-74
2023/03/24 12:32:18;;;;;;;9.95;2.33;;;17.60;16.10;;;;;;5052293;28;20385;-74
2023/03/24 12:35:10;;;;;;;9.05;2.40;;;17.30;16.10;;;;;;5051524;28;20502;-74
2023/03/24 12:37:48;;;;;;;11.48;2.78;;;17.30;16.70;;;;;;5051306;28;20381;-74
2023/03/24 12:40:48;;;;;;;12.95;2.75;;;17.20;16.80;;;;;;5051563;28;20397;-73
2023/03/24 12:43:41;;;;;;;9.48;2.55;;;16.80;16.90;;;;;;5051155;28;20376;-74
2023/03/24 12:46:22;;;;;;;9.60;2.30;;;16.60;17.20;;;;;;5051745;28;20377;-74
2023/03/24 12:49:32;;;;;;;9.88;2.40;;;16.50;17.10;;;;;;5051182;28;20390;-73
2023/03/24 12:52:24;;;;;;;9.98;2.50;;;16.30;17.10;;;;;;5051012;28;20440;-74
2023/03/24 12:55:11;;;;;;;10.70;3.20;;;16.20;18.10;;;;;;5050752;28;20462;-74
2023/03/24 12:57:43;;;;;;;11.80;2.50;;;16.30;18.90;;;;;;5051461;28;20471;-74
2023/03/24 13:00:24;;;;;;;10.00;2.60;;;16.60;18.10;;;;;;5051424;28;20428;-72
2023/03/24 13:03:15;;;;;;;9.80;3.08;;;16.60;18.00;;;;;;5050527;28;20382;-73
2023/03/24 13:05:49;;;;;;;13.02;3.00;;;16.60;17.60;;;;;;5051475;28;20511;-73
2023/03/24 13:08:28;;;;;;;10.05;2.90;;;17.00;17.40;;;;;;5039423;28;20456;-73
2023/03/24 13:11:01;;;;;;;10.48;2.70;;;17.50;16.60;;;;;;5055717;28;20381;-73